London Luton Airport


Codes: EGGW/LTN
Name: London Luton Airport
City: London
Country: United Kingdom
Elevation: 526 ft.
Website:
Wikipedia:

Photos at London Luton Airport


   Photos courtesy of SpottingLog. You can add your own sightings and photos by signing up for a free trial today.



G-IASB, 26-May-2024
© Richard blott

G-WUKM, 26-May-2024
© Richard blott

G-EZDF, 26-May-2024
© Richard blott

G-UZHH, 26-May-2024
© Richard blott

EI-EFO, 26-May-2024
© Richard blott

G-UZLS, 26-May-2024
© Richard blott

G-UZLP, 26-May-2024
© Richard blott

G-WUKV, 26-May-2024
© Richard blott

G-WUKY, 26-May-2024
© Richard blott

9H-WNC, 26-May-2024
© Richard blott

HA-LTB, 26-May-2024
© Richard blott

N527QS, 26-May-2024
© Richard blott


Weather at London Luton Airport


Time (UTC)DescriptionTempratureWindCloud coverageVisibilityPressureHumidity
16-Jun-2024 09:00Light Rain14°C13 mph, SW75%10000m1000hPa84%
16-Jun-2024 12:00Light Rain14°C11 mph, W78%10000m1000hPa76%
16-Jun-2024 15:00Light Rain16°C11 mph, W62%10000m1001hPa69%
16-Jun-2024 18:00Light Rain16°C9 mph, W68%10000m1003hPa74%
16-Jun-2024 21:00Clear Sky10°C9 mph, SW3%10000m1006hPa91%
17-Jun-2024 00:00Scattered Clouds8°C9 mph, SW28%10000m1007hPa94%
17-Jun-2024 03:00Scattered Clouds7°C9 mph, SW27%10000m1008hPa96%
17-Jun-2024 06:00Few Clouds10°C9 mph, SW18%10000m1009hPa91%
17-Jun-2024 09:00Clear Sky15°C11 mph, SW4%10000m1010hPa72%
17-Jun-2024 12:00Clear Sky18°C9 mph, SW3%10000m1011hPa60%
17-Jun-2024 15:00Scattered Clouds18°C9 mph, SW36%10000m1011hPa58%
17-Jun-2024 18:00Scattered Clouds17°C7 mph, W50%10000m1012hPa74%
17-Jun-2024 21:00Overcast Clouds13°C4 mph, NW100%10000m1013hPa88%
18-Jun-2024 00:00Overcast Clouds11°C4 mph, NW100%10000m1014hPa92%
18-Jun-2024 03:00Scattered Clouds9°C4 mph, N37%10000m1015hPa95%
18-Jun-2024 06:00Scattered Clouds11°C7 mph, N34%10000m1015hPa88%
18-Jun-2024 09:00Overcast Clouds15°C9 mph, N98%10000m1016hPa76%
18-Jun-2024 12:00Overcast Clouds18°C7 mph, N96%10000m1016hPa70%
18-Jun-2024 15:00Overcast Clouds17°C4 mph, N100%10000m1016hPa77%
18-Jun-2024 18:00Light Rain16°C7 mph, N100%10000m1017hPa83%
18-Jun-2024 21:00Light Rain12°C9 mph, N100%10000m1019hPa97%
19-Jun-2024 00:00Overcast Clouds9°C4 mph, NE97%10000m1022hPa98%
19-Jun-2024 03:00Overcast Clouds8°C7 mph, NE95%10000m1022hPa98%
19-Jun-2024 06:00Overcast Clouds11°C7 mph, NE89%10000m1023hPa94%
19-Jun-2024 09:00Broken Clouds15°C7 mph, E59%10000m1024hPa76%
19-Jun-2024 12:00Broken Clouds18°C4 mph, E61%10000m1024hPa63%
19-Jun-2024 15:00Overcast Clouds20°C4 mph, E86%10000m1023hPa60%
19-Jun-2024 18:00Broken Clouds17°C9 mph, E65%10000m1022hPa76%
19-Jun-2024 21:00Broken Clouds12°C7 mph, SE67%10000m1023hPa86%
20-Jun-2024 00:00Broken Clouds10°C4 mph, SE78%10000m1022hPa84%
20-Jun-2024 03:00Overcast Clouds10°C4 mph, SE88%10000m1020hPa80%
20-Jun-2024 06:00Broken Clouds12°C2 mph, E67%10000m1020hPa77%
20-Jun-2024 09:00Broken Clouds17°C7 mph, E76%10000m1018hPa66%
20-Jun-2024 12:00Overcast Clouds19°C7 mph, E86%10000m1017hPa63%
20-Jun-2024 15:00Overcast Clouds17°C7 mph, E100%10000m1014hPa79%
20-Jun-2024 18:00Overcast Clouds17°C4 mph, NE99%10000m1013hPa81%
20-Jun-2024 21:00Overcast Clouds15°C4 mph, NW98%10000m1012hPa84%
21-Jun-2024 00:00Light Rain14°C7 mph, N99%10000m1010hPa91%
21-Jun-2024 03:00Overcast Clouds13°C7 mph, NW100%10000m1010hPa92%
21-Jun-2024 06:00Light Rain14°C4 mph, NW100%10000m1010hPa93%